Flight Track Log - Related Links

Times and Time Zones

All times are in EST time to prevent confusion due to time zone crossing. See the AIP32 flight status page for this flight to view local times or setup timezone preferences in your user account.

Time Position Orientation Groundspeed Altitude Reporting Facility
EST Latitude Longitude Course Direction KTS MPH feet Rate Location/Type
Thu 11:37:05 PM 45.8292 -108.6497 287° West 132 152 6,600  Level Salt Lake Center
Thu 11:38:06 PM 45.8439 -108.7025 292° West 143 165 7,700 976 Climbing Salt Lake Center
Thu 11:39:08 PM 45.8608 -108.7536 295° West 143 165 8,600 829 Climbing Salt Lake Center
Thu 11:40:09 PM 45.8736 -108.8144 287° West 149 171 9,400 738 Climbing Salt Lake Center
Thu 11:41:00 PM 45.9035 -108.9937 287° West  Level FlightAware Approximate
Thu 11:41:10 PM 45.8856 -108.8664 288° West 140 161 10,100  Level Salt Lake Center
Thu 11:42:00 PM 45.9195 -109.0684 287° West  Level FlightAware Approximate
Thu 11:42:12 PM 45.9003 -108.9192 292° West 143 165 10,900  Level Salt Lake Center
Thu 11:43:13 PM 45.9158 -108.9744 292° West 139 160 11,700 639 Climbing Salt Lake Center
Thu 11:44:14 PM 45.9289 -109.0278 289° West 142 163 12,200 439 Climbing Salt Lake Center
Thu 11:45:16 PM 45.9389 -109.0831 285° West 145 167 12,600 293 Climbing Salt Lake Center
Thu 11:46:17 PM 45.9508 -109.1450 286° West 157 181 12,800 295 Climbing Salt Lake Center
Thu 11:47:18 PM 45.9561 -109.2050 277° West 157 181 13,200 492 Climbing Salt Lake Center
Thu 11:48:19 PM 45.9708 -109.2703 288° West 159 183 13,800 390 Climbing Salt Lake Center
Thu 11:49:21 PM 45.9853 -109.3328 288° West 166 191 14,000 98 Climbing Salt Lake Center
Thu 11:50:22 PM 45.9989 -109.4022 286° West 180 207 14,000 49 Level Salt Lake Center
Thu 11:51:23 PM 46.0147 -109.4769 287° West 182 209 14,100 49 Climbing Salt Lake Center
Thu 11:52:25 PM 46.0328 -109.5439 291° West 182 209 14,100  Level Salt Lake Center
Thu 11:53:26 PM 46.0500 -109.6150 289° West 190 219 14,100 -49 Level Salt Lake Center
Thu 11:54:27 PM 46.0697 -109.6883 291° West 184 212 14,000 49 Descending Salt Lake Center
Thu 11:55:28 PM 46.0861 -109.7619 288° West 194 223 14,200 98 Climbing Salt Lake Center
Thu 11:56:30 PM 46.1089 -109.8317 295° West 185 213 14,200  Level Salt Lake Center
Thu 11:57:31 PM 46.1194 -109.9089 281° West 190 219 14,200 -98 Level Salt Lake Center
Thu 11:58:32 PM 46.1369 -109.9797 290° West 190 219 14,000 -98 Descending Salt Lake Center
Thu 11:59:34 PM 46.1525 -110.0531 287° West 190 219 14,000 -98 Level Salt Lake Center
Fri 12:00:35 AM 46.1683 -110.1294 287° West 193 222 13,800  Descending Salt Lake Center
Fri 12:01:36 AM 46.1831 -110.2042 286° West 195 224 14,000 22 Climbing Salt Lake Center
Fri 12:09:34 AM 46.3000 -110.8067 287° West 201 231 14,000  Level Salt Lake Center
Fri 12:10:00 AM 46.3001 -110.8424 288° West  Level FlightAware Approximate
Fri 12:10:35 AM 46.3081 -110.8769 279° West 190 219 14,000  Level Salt Lake Center
Fri 12:11:00 AM 46.3168 -110.9173 287° West  Level FlightAware Approximate
Fri 12:11:36 AM 46.3322 -110.9678 291° West 208 239 13,900  Level Salt Lake Center
Fri 12:13:39 AM 46.3633 -111.1214 286° West 197 227 13,900 -33 Level Salt Lake Center
Fri 12:14:00 AM 46.3634 -111.1437 287° West  Level FlightAware Approximate
Fri 12:14:40 AM 46.3825 -111.1992 290° West 201 231 13,800  Level Salt Lake Center
Fri 12:15:41 AM 46.4017 -111.2764 290° West 201 231 13,900 49 Climbing Salt Lake Center
Fri 12:16:43 AM 46.4197 -111.3517 289° West 196 226 13,900  Level Salt Lake Center
Fri 12:17:44 AM 46.4344 -111.4317 285° West 202 232 13,900 49 Level Salt Lake Center
Fri 12:18:45 AM 46.4431 -111.5119 279° West 201 231 14,000  Climbing Salt Lake Center
Fri 12:19:46 AM 46.4614 -111.5897 289° West 206 237 13,900 -49 Descending Salt Lake Center
Fri 12:20:48 AM 46.4686 -111.6700 277° West 201 231 13,900  Level Salt Lake Center
Fri 12:21:49 AM 46.4917 -111.7439 294° West 204 235 13,900 49 Level Salt Lake Center
Fri 12:22:50 AM 46.5128 -111.8181 292° West 200 230 14,000 49 Climbing Salt Lake Center
Fri 12:23:51 AM 46.5428 -111.8878 302° West 204 235 14,000  Level Salt Lake Center
Fri 12:24:53 AM 46.5739 -111.9528 305° West 198 228 14,000 49 Level Salt Lake Center
Fri 12:25:54 AM 46.6022 -112.0194 302° West 198 228 14,100 49 Climbing Salt Lake Center
Fri 12:26:55 AM 46.6269 -112.0903 297° West 198 228 14,100 -98 Level Salt Lake Center
Fri 12:27:56 AM 46.6592 -112.1767 299° West 202 232 13,900  Descending Salt Lake Center
Fri 12:28:57 AM 46.6814 -112.2492 294° West 198 228 14,100 49 Climbing Salt Lake Center
Fri 12:29:59 AM 46.7061 -112.3200 297° West 198 228 14,000 -49 Descending Salt Lake Center
Fri 12:31:00 AM 46.7347 -112.3900 301° West 201 231 14,000  Level Salt Lake Center
Fri 12:32:01 AM 46.7592 -112.4633 296° West 201 231 14,000  Level Salt Lake Center
Fri 12:33:02 AM 46.7886 -112.5300 303° West 198 228 14,000  Level Salt Lake Center
Fri 12:34:03 AM 46.8128 -112.6017 296° West 198 228 14,000  Level Salt Lake Center
Fri 12:35:05 AM 46.8356 -112.6761 294° West 200 230 14,000 49 Level Salt Lake Center
Fri 12:36:06 AM 46.8583 -112.7500 294° West 200 230 14,100 49 Climbing Salt Lake Center
Fri 12:37:07 AM 46.8839 -112.8217 298° West 199 229 14,100 49 Level Salt Lake Center
Fri 12:38:08 AM 46.9131 -112.8919 301° West 202 232 14,200 -49 Climbing Salt Lake Center
Fri 12:39:09 AM 46.9358 -112.9703 293° West 201 231 14,000 -49 Descending Salt Lake Center
Fri 12:40:10 AM 46.9586 -113.0431 295° West 199 229 14,100 -98 Climbing Salt Lake Center
Fri 12:41:11 AM 46.9864 -113.1314 295° West 200 230 13,800 -98 Descending Salt Lake Center
Fri 12:42:12 AM 47.0144 -113.2000 301° West 199 229 13,900 195 Climbing Salt Lake Center
Fri 12:43:14 AM 47.0389 -113.2725 296° West 199 229 14,200 146 Climbing Salt Lake Center
Fri 12:44:15 AM 47.0664 -113.3456 299° West 204 235 14,200 -393 Level Salt Lake Center
Fri 12:45:16 AM 47.0933 -113.4219 297° West 211 243 13,400 -738 Descending Salt Lake Center
Fri 12:46:17 AM 47.1217 -113.5031 297° West 219 252 12,700 -689 Descending Salt Lake Center
Fri 12:47:18 AM 47.1425 -113.5911 289° West 223 257 12,000 -344 Descending Salt Lake Center
Fri 12:48:19 AM 47.1672 -113.6753 293° West 225 259 12,000 49 Level Salt Lake Center
Fri 12:49:20 AM 47.1953 -113.7511 299° West 221 254 12,100 148 Climbing Salt Lake Center
Fri 12:50:21 AM 47.2250 -113.8222 302° West 214 246 12,300 -98 Climbing Salt Lake Center
Fri 12:51:22 AM 47.2542 -113.8892 303° West 205 236 11,900 -197 Descending Salt Lake Center
Fri 12:52:23 AM 47.2822 -113.9578 301° West 197 227 11,900  Level Salt Lake Center
Fri 12:53:24 AM 47.3108 -114.0369 298° West 184 212 11,900  Level Salt Lake Center
Fri 12:54:25 AM 47.3314 -114.1036 294° West 180 207 11,900 -197 Level Salt Lake Center
Fri 12:55:26 AM 47.3300 -114.1814 269° West 191 220 11,500 -443 Descending Salt Lake Center
Fri 12:56:27 AM 47.3125 -114.2608 252° West 202 232 11,000 -492 Descending Salt Lake Center
Fri 12:57:28 AM 47.2886 -114.3381 246° West 205 236 10,500 -148 Descending Salt Lake Center
Fri 12:58:29 AM 47.2658 -114.4153 247° West 206 237 10,700  Climbing Salt Lake Center
Fri 12:59:30 AM 47.2303 -114.4747 229° Southwest 196 226 10,500 -49 Descending Salt Lake Center
Fri 01:00:31 AM 47.1925 -114.5347 227° Southwest 199 229 10,600 -738 Climbing Salt Lake Center
Fri 01:01:32 AM 47.1447 -114.4867 146° Southeast 258 297 9,000 -984 Descending Salt Lake Center
Fri 01:02:33 AM 47.0997 -114.4075 130° Southeast 235 270 8,600 -738 Descending Salt Lake Center
Fri 01:03:34 AM 47.0622 -114.3403 129° Southeast 216 249 7,500 -1,033 Descending Salt Lake Center
Fri 01:04:35 AM 47.0261 -114.2767 130° Southeast 208 239 6,500 -1,091 Descending Salt Lake Center
Fri 01:05:35 AM 46.9936 -114.2275 134° Southeast 168 193 5,300 -942 Descending Salt Lake Center
Fri 01:06:36 AM 46.9700 -114.1814 127° Southeast 148 170 4,600 -639 Descending Salt Lake Center
Fri 01:07:37 AM 46.9439 -114.1397 133° Southeast 133 153 4,000 -639 Descending Salt Lake Center
Fri 01:08:38 AM 46.9231 -114.1042 131° Southeast 135 155 3,300 -689 Descending Salt Lake Center

Login

Don't have an account? Register now (free) for customized features, flight alerts, and more!